首页
METAR-TAF:

METAR-TAF

机场 :

海參崴國際機場

海參崴, 俄罗斯

纬度: 43-07N, 经度: 131-56E, 海拔: 184米

当前天气观测

该预报发布于18分钟前的21:00 UTC
静风
温度 15°C
湿度 100%
气压 1001 hPa
能見度: 0200

METAR: UHWW 152100Z 00000MPS 0500 0200N R25L/0550D FG VV002 15/15 Q1001 R25L/190065 NOSIG RMK QBB070 MT OBSC QFE749

时间: 07:18 (21:18 UTC)

预报

该预报发布于1小时和18分钟前的20:00 UTC
预报有效从15日的 21点(UTC)到 16日的 21点(UTC)
风速6节,风向西
能見度: 0200
层高于200英尺
成为
从 15日的 23点(UTC)到 16日的 01点(UTC)
能見度: 6000
少量云层高于400英尺
多云层高于1700英尺, 积雨云.
短暂存在
从 16日的 02点(UTC)到 16日的 10点(UTC)
风速23节,风向多变
多云层高于1600英尺, 积雨云.
雷暴, 小雨,

TAF: UHWW 152000Z 1521/1621 27003MPS 0200 FG VV002 BECMG 1523/1601 6000 NSW FEW004 BKN017CB TEMPO 1602/1610 VRB12MPS -TSRA BKN016CB

超过4000个机场的气象观测和天气预报(METAR&TAF报告)。

可查询的气象台以黄色和红色小点在地图上表示。

将鼠标移到小点上方,可查看气象台名称。

然后点击查看天气观测和预报。

如需切换地图:点击带黑十字的绿色按钮放大地图;点击带横线的绿色按钮缩小地图;或者点击绿色箭头查看邻近地区的地图。


METAR-TAF: